createdAt,value
2022-10-31T00:04:17.947Z,6.72
2022-10-31T00:09:19.559Z,6.90
2022-10-31T00:14:21.271Z,6.47
2022-10-31T00:19:22.989Z,6.72
2022-10-31T00:24:24.667Z,7.00
2022-10-31T00:29:26.333Z,7.00
2022-10-31T00:34:27.983Z,6.57
2022-10-31T00:39:29.616Z,6.70
2022-10-31T00:44:31.242Z,6.28
2022-10-31T00:49:32.869Z,6.72
2022-10-31T00:54:34.557Z,6.65
2022-10-31T00:59:36.197Z,6.88
2022-10-31T01:04:37.832Z,6.93
2022-10-31T01:09:39.461Z,6.55
2022-10-31T01:14:45.652Z,6.50
2022-10-31T01:19:47.290Z,6.60
2022-10-31T01:24:49.033Z,7.00
2022-10-31T01:29:50.686Z,6.53
2022-10-31T01:34:52.311Z,6.50
2022-10-31T01:39:53.973Z,6.80
2022-10-31T01:44:59.046Z,6.35
2022-10-31T01:50:03.582Z,7.28
2022-10-31T01:55:30.833Z,6.68
2022-10-31T02:00:32.900Z,6.70
2022-10-31T02:05:34.843Z,6.85
2022-10-31T02:10:37.958Z,6.40
2022-10-31T02:15:41.137Z,6.70
2022-10-31T02:21:09.644Z,6.95
2022-10-31T02:26:23.196Z,7.07
2022-10-31T02:31:47.400Z,7.25
2022-10-31T02:36:59.896Z,6.68
2022-10-31T02:42:17.284Z,6.53
2022-10-31T02:47:23.685Z,6.97
2022-10-31T02:52:27.749Z,6.97
2022-10-31T02:57:35.519Z,6.35
2022-10-31T03:02:58.276Z,7.05
2022-10-31T03:08:09.262Z,7.13
2022-10-31T03:13:27.401Z,7.05
2022-10-31T03:18:43.696Z,6.68
2022-10-31T03:23:47.510Z,7.00
2022-10-31T03:29:00.134Z,6.85
2022-10-31T03:34:03.824Z,7.22
2022-10-31T03:39:09.614Z,7.30
2022-10-31T03:44:19.942Z,7.38
2022-10-31T03:49:22.298Z,7.57
2022-10-31T03:54:37.375Z,7.22
2022-10-31T04:00:08.195Z,7.47
2022-10-31T04:05:11.733Z,7.05
2022-10-31T04:10:15.872Z,7.88
2022-10-31T04:15:18.383Z,7.82
2022-10-31T04:20:30.085Z,8.13
2022-10-31T04:25:31.768Z,7.65
2022-10-31T04:30:33.414Z,7.80
2022-10-31T04:35:35.081Z,8.05
2022-10-31T04:40:36.700Z,7.32
2022-10-31T04:45:38.804Z,7.18
2022-10-31T04:50:40.657Z,7.72
2022-10-31T04:55:42.297Z,8.23
2022-10-31T05:00:43.946Z,8.05
2022-10-31T05:05:45.580Z,7.90
2022-10-31T05:10:47.190Z,7.93
2022-10-31T05:15:50.093Z,7.95
2022-10-31T05:20:51.749Z,8.45
2022-10-31T05:25:53.423Z,7.47
2022-10-31T05:30:55.138Z,8.00
2022-10-31T05:35:56.863Z,7.65
2022-10-31T05:40:59.040Z,8.85
2022-10-31T05:46:00.676Z,8.18
2022-10-31T05:51:02.322Z,7.72
2022-10-31T05:56:04.081Z,7.80
2022-10-31T06:01:08.662Z,8.52
2022-10-31T06:06:10.740Z,8.82
2022-10-31T06:11:12.407Z,8.65
2022-10-31T06:16:14.038Z,8.27
2022-10-31T06:21:18.879Z,8.50
2022-10-31T06:26:20.946Z,8.70
2022-10-31T06:31:22.606Z,8.98
2022-10-31T06:36:24.425Z,8.68
2022-10-31T06:41:26.097Z,8.85
2022-10-31T06:46:27.716Z,8.90
2022-10-31T06:51:29.376Z,9.00
2022-10-31T06:56:31.011Z,9.18
2022-10-31T07:01:32.757Z,8.93
2022-10-31T07:06:34.485Z,10.38
2022-10-31T07:11:36.166Z,8.68
2022-10-31T07:16:37.854Z,9.35
2022-10-31T07:21:39.488Z,9.13
2022-10-31T07:26:43.270Z,10.23
2022-10-31T07:31:47.309Z,9.43
2022-10-31T07:36:48.941Z,8.38
2022-10-31T07:41:51.403Z,8.80
2022-10-31T07:46:53.608Z,8.75
2022-10-31T07:51:56.209Z,9.13
2022-10-31T07:56:57.940Z,8.13
2022-10-31T08:01:59.569Z,8.77
2022-10-31T08:07:01.188Z,8.95
2022-10-31T08:12:03.118Z,9.15
2022-10-31T08:17:04.816Z,8.63
2022-10-31T08:22:06.441Z,8.52
2022-10-31T08:27:08.056Z,9.02
2022-10-31T08:32:09.702Z,8.23
2022-10-31T08:37:11.466Z,8.38
2022-10-31T08:42:13.578Z,8.60
2022-10-31T08:47:15.202Z,9.15
2022-10-31T08:52:16.984Z,8.73
2022-10-31T08:57:18.640Z,9.90
2022-10-31T09:02:20.328Z,12.95
2022-10-31T09:07:22.075Z,15.43
2022-10-31T09:12:24.872Z,15.25
2022-10-31T09:17:27.715Z,14.80
2022-10-31T09:22:29.354Z,15.13
2022-10-31T09:27:30.991Z,15.55
2022-10-31T09:32:32.606Z,15.60
2022-10-31T09:37:34.568Z,20.33
2022-10-31T09:43:15.181Z,21.25
2022-10-31T09:48:25.685Z,22.08
2022-10-31T09:53:43.277Z,21.02
2022-10-31T09:58:48.706Z,21.42
2022-10-31T10:03:53.018Z,22.17
2022-10-31T10:08:55.635Z,23.60
2022-10-31T10:14:34.514Z,23.10
2022-10-31T10:19:42.157Z,22.63
2022-10-31T10:25:14.436Z,21.90
2022-10-31T10:30:27.337Z,23.25
2022-10-31T10:35:33.437Z,23.02
2022-10-31T10:40:35.357Z,24.17
2022-10-31T10:45:57.007Z,22.40
2022-10-31T10:50:59.430Z,24.02
2022-10-31T10:56:17.957Z,22.40
2022-10-31T11:01:19.604Z,23.88
2022-10-31T11:06:27.134Z,23.50
2022-10-31T11:11:31.859Z,22.02
2022-10-31T11:16:43.094Z,22.52
2022-10-31T11:21:52.906Z,23.90
2022-10-31T11:27:20.632Z,23.13
2022-10-31T11:32:25.067Z,23.13
2022-10-31T11:37:33.542Z,22.85
2022-10-31T11:42:43.505Z,22.60
2022-10-31T11:47:49.075Z,22.50
2022-10-31T11:52:52.146Z,22.38
2022-10-31T11:57:56.077Z,22.88
2022-10-31T12:03:36.058Z,22.25
2022-10-31T12:08:39.460Z,22.63
2022-10-31T12:13:59.868Z,22.63
2022-10-31T12:19:31.044Z,21.98
2022-10-31T12:24:38.825Z,20.90
2022-10-31T12:29:52.580Z,22.50
2022-10-31T12:35:15.069Z,21.40
2022-10-31T12:40:42.508Z,22.50
2022-10-31T12:45:59.029Z,20.67
2022-10-31T12:51:30.749Z,21.40
2022-10-31T12:56:38.609Z,21.98
2022-10-31T13:01:51.841Z,20.25
2022-10-31T13:07:02.258Z,21.55
2022-10-31T13:12:10.740Z,21.50
2022-10-31T13:17:28.495Z,21.42
2022-10-31T13:22:36.591Z,19.67
2022-10-31T13:27:53.947Z,21.60
2022-10-31T13:33:13.608Z,20.73
2022-10-31T13:38:15.204Z,21.70
2022-10-31T13:43:47.959Z,20.23
2022-10-31T13:48:49.708Z,21.83
2022-10-31T13:53:51.343Z,20.27
2022-10-31T13:59:21.831Z,21.00
2022-10-31T14:04:28.493Z,20.48
2022-10-31T14:09:51.364Z,21.60
2022-10-31T14:14:59.728Z,21.42
2022-10-31T14:20:11.459Z,21.33
2022-10-31T14:25:36.270Z,20.83
2022-10-31T14:30:37.964Z,22.83
2022-10-31T14:36:16.072Z,24.73
2022-10-31T14:41:42.407Z,23.63
2022-10-31T14:46:49.785Z,23.52
2022-10-31T14:51:52.868Z,24.58
2022-10-31T14:57:05.166Z,25.10
2022-10-31T15:02:27.102Z,25.20
2022-10-31T15:07:32.434Z,23.63
2022-10-31T15:12:39.790Z,25.88
2022-10-31T15:17:45.867Z,25.90
2022-10-31T15:22:48.971Z,25.17
2022-10-31T15:27:52.205Z,25.80
2022-10-31T15:32:58.679Z,26.45
2022-10-31T15:38:02.790Z,25.23
2022-10-31T15:43:07.736Z,26.00
2022-10-31T15:48:19.860Z,26.27
2022-10-31T15:53:44.160Z,27.60
2022-10-31T15:58:48.835Z,27.17
2022-10-31T16:04:22.895Z,29.42
2022-10-31T16:09:25.484Z,30.35
2022-10-31T16:14:30.634Z,29.90
2022-10-31T16:19:36.402Z,30.75
2022-10-31T16:24:47.458Z,30.77
2022-10-31T16:29:49.129Z,31.05
2022-10-31T16:35:17.786Z,32.75
2022-10-31T16:40:19.681Z,32.22
2022-10-31T16:45:23.784Z,31.67
2022-10-31T16:50:27.359Z,31.42
2022-10-31T16:55:29.172Z,33.80
2022-10-31T17:00:31.671Z,33.70
2022-10-31T17:05:33.483Z,32.80
2022-10-31T17:10:35.901Z,31.75
2022-10-31T17:15:45.161Z,33.75
2022-10-31T17:20:47.937Z,37.22
2022-10-31T17:25:49.652Z,33.58
2022-10-31T17:30:51.318Z,32.78
2022-10-31T17:35:53.115Z,35.30
2022-10-31T17:40:54.807Z,35.47
2022-10-31T17:46:00.563Z,40.00
2022-10-31T17:51:04.442Z,36.30
2022-10-31T17:56:10.147Z,34.67
2022-10-31T18:01:14.452Z,35.15
2022-10-31T18:06:16.978Z,38.38
2022-10-31T18:11:21.129Z,38.88
2022-10-31T18:16:23.048Z,41.85
2022-10-31T18:21:25.679Z,40.25
2022-10-31T18:26:28.200Z,40.50
2022-10-31T18:31:29.988Z,39.03
2022-10-31T18:36:31.740Z,41.22
2022-10-31T18:41:33.553Z,43.67
2022-10-31T18:46:35.571Z,43.45
2022-10-31T18:51:37.249Z,41.60
2022-10-31T18:56:38.891Z,43.20
2022-10-31T19:01:40.721Z,42.58
2022-10-31T19:06:42.463Z,43.22
2022-10-31T19:11:44.179Z,41.25
2022-10-31T19:16:45.841Z,41.58
2022-10-31T19:21:47.824Z,42.67
2022-10-31T19:26:49.623Z,41.38
2022-10-31T19:31:51.342Z,40.63
2022-10-31T19:36:53.549Z,39.70
2022-10-31T19:41:55.185Z,37.80
2022-10-31T19:46:56.806Z,37.85
2022-10-31T19:51:58.662Z,36.83
2022-10-31T19:57:00.742Z,36.25
2022-10-31T20:02:02.363Z,34.70
2022-10-31T20:07:04.348Z,34.08
2022-10-31T20:12:07.309Z,32.10
2022-10-31T20:17:09.029Z,33.45
2022-10-31T20:22:11.473Z,34.28
2022-10-31T20:27:13.210Z,35.00
2022-10-31T20:32:15.295Z,32.58
2022-10-31T20:37:16.982Z,31.52
2022-10-31T20:42:18.690Z,31.92
2022-10-31T20:47:23.372Z,31.83
2022-10-31T20:52:26.678Z,33.10
2022-10-31T20:57:28.367Z,32.63
2022-10-31T21:02:30.366Z,33.35
2022-10-31T21:07:32.095Z,34.15
2022-10-31T21:12:33.829Z,32.40
2022-10-31T21:17:35.754Z,33.80
2022-10-31T21:22:37.897Z,33.33
2022-10-31T21:27:39.950Z,34.70
2022-10-31T21:32:42.017Z,30.77
2022-10-31T21:37:43.769Z,29.73
2022-10-31T21:42:45.522Z,29.40
2022-10-31T21:47:48.112Z,29.45
2022-10-31T21:52:49.845Z,27.02
2022-10-31T21:57:51.516Z,27.55
2022-10-31T22:02:53.227Z,24.90
2022-10-31T22:07:54.964Z,26.10
2022-10-31T22:12:57.357Z,26.05
2022-10-31T22:17:59.305Z,25.52
2022-10-31T22:23:01.114Z,26.42
2022-10-31T22:28:06.854Z,24.92
2022-10-31T22:33:08.517Z,24.73
2022-10-31T22:38:10.123Z,25.95
2022-10-31T22:43:11.801Z,26.35
2022-10-31T22:48:13.759Z,25.40
2022-10-31T22:53:15.856Z,26.05
2022-10-31T22:58:17.506Z,26.20
2022-10-31T23:03:19.221Z,25.83
2022-10-31T23:08:20.840Z,25.20
2022-10-31T23:13:41.801Z,24.25
2022-10-31T23:18:50.226Z,25.40
2022-10-31T23:23:52.210Z,24.48
2022-10-31T23:28:53.845Z,22.67
2022-10-31T23:33:55.577Z,23.63
2022-10-31T23:38:57.202Z,22.67
2022-10-31T23:43:58.923Z,22.88
2022-10-31T23:49:00.729Z,23.92
2022-10-31T23:54:02.472Z,23.35
2022-10-31T23:59:04.711Z,24.08
